Dati Storici

Data ora Umidita' aria (%) Temperatura aria (°C) Rad globale (W/m²) Gonioanemometro (°) Tacoanemometro (m/s) Pioggia (mm)
21-06-2020 07:30 73.1 % 23.144 82.015 1.266 0 0
21-06-2020 07:20 77.3 % 22.402 58.497 0.875 0 0
21-06-2020 07:10 80.6 % 21.216 51.462 -0.025 0 0
21-06-2020 07:00 82.4 % 21.018 310.254 0.105 0 0
21-06-2020 06:50 83.8 % 20.622 35.386 -0.02 0 0
21-06-2020 06:40 85.6 % 20.211 26.927 1.339 0 0
21-06-2020 06:30 87.2 % 19.619 36.02 0.709 0 0
21-06-2020 06:20 89.1 % 19 24.769 0.592 0 0
21-06-2020 06:10 89.7 % 18.939 33.172 2.742 0 0
21-06-2020 06:00 92.1 % 18.733 18.205 -0.01 0 0
21-06-2020 05:50 93.3 % 18.406 331.017 0.819 0 0
21-06-2020 05:40 96.4 % 18.518 13.108 0.899 0 0
21-06-2020 05:30 97.6 % 18.071 22.297 0.175 0 0
21-06-2020 05:20 97.7 % 17.66 29.907 1.227 0 0
21-06-2020 05:10 97.7 % 17.459 13.547 0.753 0 0
21-06-2020 05:00 97.7 % 17.268 13.223 1.381 0 0
21-06-2020 04:50 97.7 % 17.15 51.368 0.209 0 0
21-06-2020 04:40 97.7 % 17.082 13.166 1.739 0 0
21-06-2020 04:30 97.7 % 17.144 0.31 0.542 0 0
21-06-2020 04:20 97.7 % 17.131 1.189 0.05 0 0

I dati sono presentati in modo automatico a scopo informativo. In seguito a verifica i dati possono subire modifiche o essere invalidati e non riportati negli archivi definitivi.